createdAt,value
2022-11-08T04:06:39.615Z,9.668126
2022-11-08T04:07:39.609Z,9.668072
2022-11-08T04:08:39.624Z,9.667997
2022-11-08T04:09:39.657Z,9.668066
2022-11-08T04:10:39.596Z,9.668010
2022-11-08T04:11:39.616Z,9.668014
2022-11-08T04:12:39.610Z,9.667969
2022-11-08T04:13:39.588Z,9.667995
2022-11-08T04:14:39.617Z,9.667995
2022-11-08T04:15:39.565Z,9.667999
2022-11-08T04:16:39.674Z,9.668015
2022-11-08T04:17:39.557Z,9.668018
2022-11-08T04:18:39.529Z,9.668043
2022-11-08T04:19:39.545Z,9.668019
2022-11-08T04:20:39.508Z,9.668038
2022-11-08T04:21:39.551Z,9.668023
2022-11-08T04:22:39.546Z,9.668049
2022-11-08T04:23:39.512Z,9.668032
2022-11-08T04:24:39.513Z,9.668058
2022-11-08T04:25:39.473Z,9.668062
2022-11-08T04:26:39.511Z,9.668065
2022-11-08T04:27:39.485Z,9.668040
2022-11-08T04:28:39.462Z,9.668033
2022-11-08T04:29:39.471Z,9.668037
2022-11-08T04:30:39.468Z,9.668029
2022-11-08T04:31:39.426Z,9.668029
2022-11-08T04:32:39.443Z,9.668046
2022-11-08T04:33:39.423Z,9.668015
2022-11-08T04:34:39.551Z,9.668013
2022-11-08T04:35:39.429Z,9.668013
2022-11-08T04:36:39.391Z,9.668003
2022-11-08T04:37:39.422Z,9.668040
2022-11-08T04:38:39.386Z,9.668012
2022-11-08T04:39:39.400Z,9.667993
2022-11-08T04:40:39.414Z,9.667987
2022-11-08T04:41:39.391Z,9.667983
2022-11-08T04:42:39.365Z,9.667974
2022-11-08T04:43:39.336Z,9.667991
2022-11-08T04:44:39.331Z,9.668009
2022-11-08T04:45:39.351Z,9.667998
2022-11-08T04:46:39.340Z,9.667999
2022-11-08T04:47:43.142Z,9.668049
2022-11-08T04:48:41.305Z,9.668048
2022-11-08T04:49:39.311Z,9.668051
2022-11-08T04:50:39.288Z,9.668027
2022-11-08T04:51:40.253Z,9.667967
2022-11-08T04:52:39.270Z,9.668036
2022-11-08T04:53:39.279Z,9.667929
2022-11-08T04:54:39.245Z,9.667919
2022-11-08T04:55:39.236Z,9.667887
2022-11-08T04:56:39.249Z,9.667868
2022-11-08T04:57:39.265Z,9.667888
2022-11-08T04:58:39.249Z,9.667897
2022-11-08T04:59:39.222Z,9.667919
2022-11-08T05:00:39.200Z,9.667903
2022-11-08T05:01:39.431Z,9.667851
2022-11-08T05:02:39.275Z,9.667838
2022-11-08T05:03:39.177Z,9.667820
2022-11-08T05:04:39.196Z,9.667858
2022-11-08T05:05:39.180Z,9.667912
2022-11-08T05:06:39.287Z,9.667875
2022-11-08T05:07:39.186Z,9.667919
2022-11-08T05:08:39.183Z,9.668116
2022-11-08T05:09:39.123Z,9.668168
2022-11-08T05:10:39.415Z,9.668098
2022-11-08T05:11:39.104Z,9.668153
2022-11-08T05:12:39.149Z,9.668097
2022-11-08T05:13:39.131Z,9.668049
2022-11-08T05:14:39.110Z,9.668046
2022-11-08T05:15:39.085Z,9.668057
2022-11-08T05:16:39.072Z,9.668014
2022-11-08T05:17:39.078Z,9.668050
2022-11-08T05:18:41.738Z,9.668014
2022-11-08T05:19:39.070Z,9.667961
2022-11-08T05:20:39.067Z,9.667986
2022-11-08T05:21:39.054Z,9.667974
2022-11-08T05:22:39.033Z,9.668036
2022-11-08T05:23:39.025Z,9.668032
2022-11-08T05:24:39.033Z,9.668035
2022-11-08T05:25:39.061Z,9.668049
2022-11-08T05:26:39.034Z,9.668014
2022-11-08T05:27:39.004Z,9.668041
2022-11-08T05:28:38.982Z,9.668015
2022-11-08T05:29:42.178Z,9.668008
2022-11-08T05:30:39.979Z,9.668052
2022-11-08T05:31:38.966Z,9.667996
2022-11-08T05:32:39.010Z,9.668021
2022-11-08T05:33:38.956Z,9.668041
2022-11-08T05:34:38.962Z,9.668000
2022-11-08T05:35:38.946Z,9.668041
2022-11-08T05:36:38.960Z,9.668064
2022-11-08T05:37:38.906Z,9.668036
2022-11-08T05:38:40.023Z,9.668069
2022-11-08T05:39:38.940Z,9.668046
2022-11-08T05:40:38.911Z,9.668030
2022-11-08T05:41:38.898Z,9.668020
2022-11-08T05:42:38.896Z,9.668038
2022-11-08T05:43:38.917Z,9.668046
2022-11-08T05:44:38.909Z,9.668059
2022-11-08T05:45:38.871Z,9.668099
2022-11-08T05:46:38.870Z,9.668089
2022-11-08T05:47:38.860Z,9.668073
2022-11-08T05:48:38.854Z,9.668098
2022-11-08T05:49:38.905Z,9.668058
2022-11-08T05:50:38.813Z,9.668025
2022-11-08T05:51:38.847Z,9.668025
2022-11-08T05:52:38.819Z,9.668063
2022-11-08T05:53:38.808Z,9.668082
2022-11-08T05:54:38.824Z,9.668093
2022-11-08T05:55:38.784Z,9.668099
2022-11-08T05:56:38.798Z,9.668109
2022-11-08T05:57:38.777Z,9.668092
2022-11-08T05:58:38.799Z,9.668061
2022-11-08T05:59:38.793Z,9.668065
2022-11-08T06:00:38.781Z,9.668003
2022-11-08T06:01:38.808Z,9.668012
2022-11-08T06:02:38.792Z,9.667996
2022-11-08T06:03:38.787Z,9.667992
2022-11-08T06:04:38.750Z,9.668042
2022-11-08T06:05:38.712Z,9.668070
2022-11-08T06:06:38.713Z,9.668078
2022-11-08T06:07:38.707Z,9.668025
2022-11-08T06:08:38.700Z,9.668063
2022-11-08T06:09:38.704Z,9.668048
2022-11-08T06:10:38.683Z,9.668008
2022-11-08T06:11:38.689Z,9.668040
2022-11-08T06:12:38.715Z,9.667978
2022-11-08T06:13:38.649Z,9.668017
2022-11-08T06:14:38.705Z,9.668005
2022-11-08T06:15:38.662Z,9.667974
2022-11-08T06:16:38.649Z,9.667956
2022-11-08T06:17:38.645Z,9.668029
2022-11-08T06:18:38.662Z,9.667996
2022-11-08T06:19:38.624Z,9.668043
2022-11-08T06:20:38.632Z,9.668029
2022-11-08T06:21:38.619Z,9.667971
2022-11-08T06:22:38.581Z,9.668020
2022-11-08T06:23:38.575Z,9.668023
2022-11-08T06:24:38.572Z,9.667972
2022-11-08T06:25:38.564Z,9.668015
2022-11-08T06:26:38.587Z,9.667982
2022-11-08T06:27:38.569Z,9.668003
2022-11-08T06:28:38.557Z,9.667958
2022-11-08T06:29:38.610Z,9.667983
2022-11-08T06:30:38.529Z,9.668008
2022-11-08T06:31:42.885Z,9.668048
2022-11-08T06:32:39.496Z,9.668000
2022-11-08T06:33:39.555Z,9.668039
2022-11-08T06:34:38.493Z,9.667981
2022-11-08T06:35:38.501Z,9.668035
2022-11-08T06:36:38.509Z,9.668051
2022-11-08T06:37:39.512Z,9.668010
2022-11-08T06:38:38.494Z,9.668009
2022-11-08T06:39:38.456Z,9.667919
2022-11-08T06:40:38.482Z,9.667972
2022-11-08T06:41:38.505Z,9.667961
2022-11-08T06:42:39.240Z,9.667996
2022-11-08T06:43:38.437Z,9.667989
2022-11-08T06:44:38.421Z,9.668040
2022-11-08T06:45:38.423Z,9.668044
2022-11-08T06:46:38.416Z,9.668026
2022-11-08T06:47:38.402Z,9.667980
2022-11-08T06:48:38.457Z,9.667923
2022-11-08T06:49:38.420Z,9.667977
2022-11-08T06:50:38.373Z,9.667968
2022-11-08T06:51:38.404Z,9.667953
2022-11-08T06:52:38.360Z,9.667975
2022-11-08T06:53:38.468Z,9.668041
2022-11-08T06:54:38.357Z,9.668061
2022-11-08T06:55:38.356Z,9.668058
2022-11-08T06:56:38.336Z,9.668021
2022-11-08T06:57:38.347Z,9.667984
2022-11-08T06:58:38.336Z,9.668009
2022-11-08T06:59:38.375Z,9.668037
2022-11-08T07:00:38.342Z,9.667983
2022-11-08T07:01:42.013Z,9.667944
2022-11-08T07:02:40.419Z,9.668040
2022-11-08T07:03:38.320Z,9.668003
2022-11-08T07:04:38.336Z,9.668029
2022-11-08T07:05:38.344Z,9.668083
2022-11-08T07:06:38.303Z,9.668105
2022-11-08T07:07:38.251Z,9.668128
2022-11-08T07:08:38.290Z,9.668182
2022-11-08T07:09:38.310Z,9.668109
2022-11-08T07:10:38.265Z,9.668124
2022-11-08T07:11:38.247Z,9.668010
2022-11-08T07:12:38.216Z,9.667999
2022-11-08T07:13:38.247Z,9.667980
2022-11-08T07:14:38.237Z,9.668017
2022-11-08T07:15:38.232Z,9.668040
2022-11-08T07:16:38.201Z,9.668072
2022-11-08T07:17:38.954Z,9.668113
2022-11-08T07:18:39.411Z,9.668062
2022-11-08T07:19:38.180Z,9.668078
2022-11-08T07:20:38.243Z,9.668088
2022-11-08T07:21:38.182Z,9.668128
2022-11-08T07:22:38.190Z,9.668055
2022-11-08T07:23:38.215Z,9.668097
2022-11-08T07:24:38.172Z,9.668006
2022-11-08T07:25:38.129Z,9.668034
2022-11-08T07:26:38.282Z,9.667971
2022-11-08T07:27:38.137Z,9.668056
2022-11-08T07:28:38.143Z,9.668066
2022-11-08T07:30:10.007Z,9.668029
2022-11-08T07:30:38.128Z,9.668089
2022-11-08T07:31:38.103Z,9.668032
2022-11-08T07:32:38.064Z,9.668028
2022-11-08T07:33:38.075Z,9.668006
2022-11-08T07:34:38.094Z,9.668031
2022-11-08T07:35:38.065Z,9.668083
2022-11-08T07:36:38.070Z,9.668032
2022-11-08T07:37:38.032Z,9.668008
2022-11-08T07:38:38.042Z,9.668002
2022-11-08T07:39:38.041Z,9.668017
2022-11-08T07:40:38.012Z,9.668087
2022-11-08T07:41:38.012Z,9.668016
2022-11-08T07:43:04.838Z,9.668088
2022-11-08T07:43:40.028Z,9.668003
2022-11-08T07:44:37.994Z,9.667933
2022-11-08T07:45:37.981Z,9.667915
2022-11-08T07:46:37.968Z,9.667951
2022-11-08T07:47:37.959Z,9.668058
2022-11-08T07:48:37.989Z,9.668052
2022-11-08T07:49:37.954Z,9.668033
2022-11-08T07:50:37.930Z,9.668097
2022-11-08T07:51:37.921Z,9.668159
2022-11-08T07:52:37.920Z,9.668136
2022-11-08T07:53:38.774Z,9.668119
2022-11-08T07:54:37.940Z,9.668085
2022-11-08T07:55:37.894Z,9.668088
2022-11-08T07:56:37.895Z,9.668087
2022-11-08T07:57:37.875Z,9.668092
2022-11-08T07:58:37.864Z,9.668094
2022-11-08T07:59:37.917Z,9.668134
2022-11-08T08:00:37.884Z,9.668033
2022-11-08T08:01:37.913Z,9.668074
2022-11-08T08:02:37.922Z,9.668051
2022-11-08T08:03:37.864Z,9.668039
2022-11-08T08:04:37.835Z,9.668046
2022-11-08T08:05:37.834Z,9.668036
2022-11-08T08:06:37.836Z,9.668024
2022-11-08T08:07:37.814Z,9.668053
2022-11-08T08:08:37.815Z,9.668068
2022-11-08T08:09:37.800Z,9.668071
2022-11-08T08:10:37.782Z,9.668077
2022-11-08T08:11:37.810Z,9.668073
2022-11-08T08:12:37.853Z,9.668092
2022-11-08T08:13:37.769Z,9.668065
2022-11-08T08:15:09.697Z,9.668049
2022-11-08T08:15:37.786Z,9.668129
2022-11-08T08:16:38.340Z,9.668093
2022-11-08T08:17:37.753Z,9.668058
2022-11-08T08:18:37.749Z,9.668090
2022-11-08T08:19:37.712Z,9.668119
2022-11-08T08:20:37.703Z,9.668084
2022-11-08T08:21:38.721Z,9.668056
2022-11-08T08:22:37.735Z,9.667986
2022-11-08T08:23:37.689Z,9.667913
2022-11-08T08:24:37.693Z,9.667971
2022-11-08T08:25:37.697Z,9.668040
2022-11-08T08:26:37.689Z,9.668047
2022-11-08T08:27:37.645Z,9.668023
2022-11-08T08:28:37.667Z,9.667981
2022-11-08T08:29:37.664Z,9.667951
2022-11-08T08:30:37.640Z,9.668024
2022-11-08T08:31:37.645Z,9.667989
2022-11-08T08:32:37.670Z,9.667994
2022-11-08T08:33:38.137Z,9.668022
2022-11-08T08:34:37.603Z,9.668008
2022-11-08T08:35:37.607Z,9.668001
2022-11-08T08:36:37.569Z,9.668063
2022-11-08T08:37:37.604Z,9.668003
2022-11-08T08:38:43.058Z,9.667970
2022-11-08T08:39:39.552Z,9.667982
2022-11-08T08:40:37.542Z,9.667956
2022-11-08T08:41:37.553Z,9.667975
2022-11-08T08:42:37.550Z,9.667940
2022-11-08T08:43:37.533Z,9.667941
2022-11-08T08:44:37.555Z,9.667964
2022-11-08T08:45:37.534Z,9.667963
2022-11-08T08:46:37.558Z,9.667957
2022-11-08T08:47:37.550Z,9.667987
2022-11-08T08:48:37.495Z,9.667973
2022-11-08T08:49:37.531Z,9.667971
2022-11-08T08:50:37.515Z,9.667967
2022-11-08T08:51:37.463Z,9.667974
2022-11-08T08:52:37.456Z,9.667985
2022-11-08T08:53:37.460Z,9.667977
2022-11-08T08:54:37.486Z,9.667952
2022-11-08T08:55:37.472Z,9.667933
2022-11-08T08:56:37.448Z,9.667928
2022-11-08T08:57:37.437Z,9.667928
2022-11-08T08:58:37.435Z,9.667904
2022-11-08T09:01:39.447Z,9.667954
2022-11-08T09:02:39.948Z,9.667964
2022-11-08T09:03:39.408Z,9.667961
2022-11-08T09:04:37.393Z,9.667951
2022-11-08T09:05:37.376Z,9.667922
2022-11-08T09:06:37.434Z,9.667919
2022-11-08T09:08:09.283Z,9.667938
2022-11-08T09:08:37.334Z,9.667940
2022-11-08T09:09:37.358Z,9.667949
2022-11-08T09:10:37.332Z,9.667953
2022-11-08T09:11:37.334Z,9.667962
2022-11-08T09:12:37.396Z,9.667967
2022-11-08T09:13:37.299Z,9.667963
2022-11-08T09:14:37.276Z,9.667948
2022-11-08T09:15:38.261Z,9.667965
2022-11-08T09:16:37.324Z,9.667917
2022-11-08T09:17:37.276Z,9.667953
2022-11-08T09:18:37.283Z,9.667925
2022-11-08T09:19:37.243Z,9.667899
2022-11-08T09:20:37.229Z,9.667919
2022-11-08T09:21:37.263Z,9.667895
2022-11-08T09:22:37.222Z,9.667892
2022-11-08T09:23:37.248Z,9.667917
2022-11-08T09:24:37.273Z,9.667961
2022-11-08T09:25:37.217Z,9.667963
2022-11-08T09:26:37.201Z,9.667983
2022-11-08T09:27:37.203Z,9.667972
2022-11-08T09:28:37.203Z,9.667969
2022-11-08T09:29:37.177Z,9.667918
2022-11-08T09:30:37.172Z,9.667975
2022-11-08T09:31:37.157Z,9.668003
2022-11-08T09:32:59.762Z,9.668043
2022-11-08T09:33:39.255Z,9.667985
2022-11-08T09:34:37.145Z,9.668015
2022-11-08T09:35:37.145Z,9.667963
2022-11-08T09:36:37.115Z,9.668012
2022-11-08T09:37:37.113Z,9.668056
2022-11-08T09:38:37.141Z,9.668014
2022-11-08T09:39:37.117Z,9.667985
2022-11-08T09:40:37.119Z,9.668021
2022-11-08T09:41:37.095Z,9.668031
2022-11-08T09:42:37.149Z,9.668031
2022-11-08T09:43:37.092Z,9.668016
2022-11-08T09:44:37.073Z,9.668048
2022-11-08T09:45:37.067Z,9.668069
2022-11-08T09:46:37.047Z,9.668077
2022-11-08T09:47:37.923Z,9.668061
2022-11-08T09:48:37.056Z,9.668104
2022-11-08T09:49:37.038Z,9.668081
2022-11-08T09:50:37.047Z,9.668095
2022-11-08T09:51:37.711Z,9.668044
2022-11-08T09:52:37.020Z,9.668044
2022-11-08T09:53:37.072Z,9.668048
2022-11-08T09:54:37.001Z,9.668028
2022-11-08T09:55:36.985Z,9.667992
2022-11-08T09:56:36.999Z,9.668009
2022-11-08T09:57:36.963Z,9.668072
2022-11-08T09:58:36.972Z,9.668053
2022-11-08T09:59:36.931Z,9.668060
2022-11-08T10:00:37.029Z,9.668018
2022-11-08T10:01:36.991Z,9.667954
2022-11-08T10:02:36.936Z,9.667987
2022-11-08T10:03:36.964Z,9.667961
2022-11-08T10:04:36.906Z,9.667998
2022-11-08T10:05:37.901Z,9.667991
2022-11-08T10:06:36.988Z,9.668026
2022-11-08T10:07:36.889Z,9.668012
2022-11-08T10:08:36.890Z,9.668031
2022-11-08T10:09:36.982Z,9.667986
2022-11-08T10:10:36.877Z,9.667995
2022-11-08T10:11:36.882Z,9.667995
2022-11-08T10:12:36.872Z,9.667989
2022-11-08T10:13:36.874Z,9.667935
2022-11-08T10:14:42.889Z,9.667950
2022-11-08T10:15:38.814Z,9.667983
2022-11-08T10:16:36.839Z,9.667978
2022-11-08T10:17:36.821Z,9.667991
2022-11-08T10:18:36.795Z,9.667967
2022-11-08T10:19:36.810Z,9.667980
2022-11-08T10:20:36.804Z,9.667983
2022-11-08T10:21:36.781Z,9.667994
2022-11-08T10:22:36.874Z,9.667992
2022-11-08T10:23:36.808Z,9.667989
2022-11-08T10:24:36.746Z,9.667974
2022-11-08T10:25:36.807Z,9.667993
2022-11-08T10:26:36.747Z,9.667985
2022-11-08T10:27:36.726Z,9.667976
2022-11-08T10:28:36.724Z,9.667992
2022-11-08T10:29:36.735Z,9.667989
2022-11-08T10:30:36.743Z,9.667974
2022-11-08T10:31:36.710Z,9.667951
2022-11-08T10:32:36.693Z,9.667972
2022-11-08T10:33:36.697Z,9.667969
2022-11-08T10:34:36.711Z,9.667970
2022-11-08T10:35:36.667Z,9.668011
2022-11-08T10:36:36.673Z,9.668022
2022-11-08T10:37:36.633Z,9.668019
2022-11-08T10:38:36.678Z,9.667998
2022-11-08T10:39:36.642Z,9.668024
2022-11-08T10:40:36.654Z,9.668003
2022-11-08T10:41:36.616Z,9.667992
2022-11-08T10:42:36.632Z,9.668013
2022-11-08T10:43:36.632Z,9.667986
2022-11-08T10:44:36.596Z,9.668010
2022-11-08T10:45:36.583Z,9.668008
2022-11-08T10:46:36.593Z,9.667996
2022-11-08T10:47:36.575Z,9.668000
2022-11-08T10:48:37.620Z,9.667983
2022-11-08T10:49:36.560Z,9.667974
2022-11-08T10:50:36.551Z,9.667996
2022-11-08T10:51:36.538Z,9.668000
2022-11-08T10:52:36.546Z,9.668033
2022-11-08T10:53:37.400Z,9.668024
2022-11-08T10:54:36.520Z,9.668051
2022-11-08T10:55:36.516Z,9.668037
2022-11-08T10:56:37.745Z,9.668054
2022-11-08T10:57:36.572Z,9.668028
2022-11-08T10:58:36.491Z,9.668024
2022-11-08T10:59:36.490Z,9.668050
2022-11-08T11:00:36.463Z,9.668047
2022-11-08T11:01:36.492Z,9.668003
2022-11-08T11:02:36.476Z,9.668007
2022-11-08T11:03:36.465Z,9.668014
2022-11-08T11:04:36.443Z,9.667972
2022-11-08T11:05:36.436Z,9.668037
2022-11-08T11:06:36.568Z,9.667992
2022-11-08T11:07:36.426Z,9.667987
2022-11-08T11:08:36.437Z,9.667999
2022-11-08T11:09:36.401Z,9.667987
2022-11-08T11:10:36.384Z,9.668016
2022-11-08T11:11:36.418Z,9.667977
2022-11-08T11:12:36.370Z,9.668002
2022-11-08T11:13:36.516Z,9.667963
2022-11-08T11:14:36.370Z,9.667945
2022-11-08T11:15:36.362Z,9.667989
2022-11-08T11:16:36.376Z,9.667973
2022-11-08T11:17:39.118Z,9.667994
2022-11-08T11:18:36.382Z,9.668006
2022-11-08T11:19:36.338Z,9.668001
2022-11-08T11:20:36.307Z,9.667971
2022-11-08T11:21:36.330Z,9.667945
2022-11-08T11:22:36.298Z,9.667968
2022-11-08T11:23:36.336Z,9.667936
2022-11-08T11:24:36.289Z,9.667930
2022-11-08T11:25:36.303Z,9.667934
2022-11-08T11:26:36.271Z,9.667963
2022-11-08T11:27:36.289Z,9.667956
2022-11-08T11:28:36.293Z,9.667954
2022-11-08T11:29:36.253Z,9.667972
2022-11-08T11:30:36.257Z,9.667998
2022-11-08T11:31:36.249Z,9.667988
2022-11-08T11:32:36.299Z,9.667982
2022-11-08T11:33:36.329Z,9.667974
2022-11-08T11:34:36.265Z,9.667948
2022-11-08T11:35:36.210Z,9.667990
2022-11-08T11:36:36.232Z,9.667973
2022-11-08T11:37:36.181Z,9.667955
2022-11-08T11:38:36.215Z,9.667942
2022-11-08T11:39:36.160Z,9.667955
2022-11-08T11:40:36.204Z,9.667938
2022-11-08T11:41:36.217Z,9.667899
2022-11-08T11:42:45.759Z,9.667949
2022-11-08T11:43:38.148Z,9.667954
2022-11-08T11:44:36.135Z,9.667958
2022-11-08T11:45:36.191Z,9.667946
2022-11-08T11:46:41.194Z,9.667989
2022-11-08T11:47:38.096Z,9.667983
2022-11-08T11:48:36.112Z,9.667974
2022-11-08T11:49:36.141Z,9.667962
2022-11-08T11:50:36.152Z,9.667970
2022-11-08T11:51:36.166Z,9.667922
2022-11-08T11:52:36.073Z,9.667954
2022-11-08T11:53:36.984Z,9.667966
2022-11-08T11:54:36.900Z,9.667961
2022-11-08T11:55:36.046Z,9.667976
2022-11-08T11:56:36.044Z,9.667978
2022-11-08T11:57:37.036Z,9.667988
2022-11-08T11:58:36.005Z,9.667990
2022-11-08T11:59:36.015Z,9.667993
2022-11-08T12:00:36.014Z,9.668002
2022-11-08T12:01:36.048Z,9.667998
2022-11-08T12:02:36.064Z,9.668015
2022-11-08T12:03:36.024Z,9.668031
2022-11-08T12:04:35.987Z,9.667999
2022-11-08T12:05:36.946Z,9.668010
2022-11-08T12:06:35.993Z,9.667997
2022-11-08T12:07:35.952Z,9.667960
2022-11-08T12:08:35.934Z,9.667917
2022-11-08T12:09:35.964Z,9.667973
2022-11-08T12:10:36.113Z,9.668024
2022-11-08T12:11:35.957Z,9.667936
2022-11-08T12:12:35.926Z,9.668083
2022-11-08T12:13:35.938Z,9.667962
2022-11-08T12:14:35.994Z,9.668049
2022-11-08T12:15:35.985Z,9.668057
2022-11-08T12:16:35.875Z,9.668002
2022-11-08T12:17:35.907Z,9.668008
2022-11-08T12:18:44.470Z,9.668045
2022-11-08T12:19:37.956Z,9.667977
2022-11-08T12:20:35.850Z,9.667948
2022-11-08T12:21:35.905Z,9.667987
2022-11-08T12:22:35.827Z,9.668010
2022-11-08T12:23:35.863Z,9.668053
2022-11-08T12:24:35.850Z,9.668010
2022-11-08T12:25:35.834Z,9.668056
2022-11-08T12:26:36.439Z,9.667987
2022-11-08T12:27:36.449Z,9.667989
2022-11-08T12:28:41.149Z,9.668056
2022-11-08T12:29:37.851Z,9.668060
2022-11-08T12:30:35.799Z,9.668046
2022-11-08T12:31:35.843Z,9.668080
2022-11-08T12:32:35.775Z,9.668014
2022-11-08T12:33:35.779Z,9.668018
2022-11-08T12:34:35.788Z,9.667997
2022-11-08T12:35:35.754Z,9.668059
2022-11-08T12:36:36.497Z,9.668071
2022-11-08T12:37:35.745Z,9.668038
2022-11-08T12:38:35.732Z,9.668069
2022-11-08T12:39:35.700Z,9.668049
2022-11-08T12:40:35.722Z,9.668057
2022-11-08T12:41:35.704Z,9.668023
2022-11-08T12:42:35.700Z,9.668008
2022-11-08T12:43:35.719Z,9.668040
2022-11-08T12:44:35.706Z,9.668024
2022-11-08T12:45:35.722Z,9.668023
2022-11-08T12:46:35.653Z,9.668037
2022-11-08T12:47:35.659Z,9.668008
2022-11-08T12:48:35.645Z,9.667925
2022-11-08T12:49:35.637Z,9.667882
2022-11-08T12:50:35.682Z,9.667896
2022-11-08T12:51:35.641Z,9.667953
2022-11-08T12:52:35.690Z,9.667925
2022-11-08T12:53:35.637Z,9.667940
2022-11-08T12:54:35.605Z,9.667912
2022-11-08T12:55:35.637Z,9.667904
2022-11-08T12:56:35.596Z,9.667919
2022-11-08T12:57:35.592Z,9.667959
2022-11-08T12:58:35.611Z,9.667924
2022-11-08T12:59:35.592Z,9.667904
2022-11-08T13:00:35.621Z,9.667948
2022-11-08T13:01:35.590Z,9.667967
2022-11-08T13:02:35.652Z,9.667994
2022-11-08T13:03:35.540Z,9.667990
2022-11-08T13:04:36.459Z,9.667955
2022-11-08T13:05:35.604Z,9.668068
2022-11-08T13:06:35.554Z,9.668002
2022-11-08T13:07:35.552Z,9.667974
2022-11-08T13:08:35.513Z,9.668055
2022-11-08T13:09:35.479Z,9.668033
2022-11-08T13:10:35.516Z,9.668036
2022-11-08T13:11:35.474Z,9.668064
2022-11-08T13:12:35.535Z,9.668033
2022-11-08T13:13:35.520Z,9.668054
2022-11-08T13:14:40.979Z,9.668047
2022-11-08T13:15:37.585Z,9.668018
2022-11-08T13:16:35.444Z,9.668033
2022-11-08T13:17:35.458Z,9.668052
2022-11-08T13:18:35.452Z,9.668005
2022-11-08T13:19:35.431Z,9.668021
2022-11-08T13:20:35.501Z,9.668054
2022-11-08T13:21:35.466Z,9.668061
2022-11-08T13:22:35.409Z,9.668043
2022-11-08T13:23:35.404Z,9.668028
2022-11-08T13:24:44.355Z,9.668041
2022-11-08T13:25:37.373Z,9.668061
2022-11-08T13:26:36.410Z,9.668028
2022-11-08T13:27:35.344Z,9.668023
2022-11-08T13:28:36.375Z,9.668033
2022-11-08T13:29:35.329Z,9.668002
2022-11-08T13:30:35.362Z,9.668034
2022-11-08T13:31:35.333Z,9.668071
2022-11-08T13:32:35.315Z,9.668012
2022-11-08T13:33:35.346Z,9.668014
2022-11-08T13:34:35.311Z,9.668031
2022-11-08T13:35:36.003Z,9.668018
2022-11-08T13:36:35.312Z,9.668069
2022-11-08T13:37:35.337Z,9.668035
2022-11-08T13:38:35.876Z,9.667992
2022-11-08T13:39:35.276Z,9.668015
2022-11-08T13:40:36.288Z,9.668013
2022-11-08T13:41:35.260Z,9.668008
2022-11-08T13:42:35.855Z,9.668007
2022-11-08T13:43:35.268Z,9.667937
2022-11-08T13:44:35.779Z,9.667973
2022-11-08T13:45:35.265Z,9.668018
2022-11-08T13:46:35.216Z,9.668018
2022-11-08T13:47:35.213Z,9.667945
2022-11-08T13:48:35.245Z,9.667998
2022-11-08T13:49:35.292Z,9.667973
2022-11-08T13:50:35.211Z,9.668017
2022-11-08T13:51:35.249Z,9.668034
2022-11-08T13:52:35.194Z,9.667983
2022-11-08T13:53:35.880Z,9.668015
2022-11-08T13:54:35.149Z,9.668031
2022-11-08T13:55:35.181Z,9.668021
2022-11-08T13:56:35.135Z,9.668005
2022-11-08T13:57:35.251Z,9.668037
2022-11-08T13:58:35.125Z,9.667999
2022-11-08T13:59:35.210Z,9.668013
2022-11-08T14:00:35.160Z,9.668019
2022-11-08T14:01:38.702Z,9.668061
2022-11-08T14:02:36.130Z,9.668067
2022-11-08T14:03:35.144Z,9.668083
2022-11-08T14:04:35.149Z,9.668040
2022-11-08T14:05:35.091Z,9.668049
2022-11-08T14:06:35.092Z,9.667988
2022-11-08T14:07:35.052Z,9.667998
2022-11-08T14:08:35.045Z,9.668023
2022-11-08T14:09:35.058Z,9.668027
2022-11-08T14:10:35.073Z,9.668037
2022-11-08T14:11:35.033Z,9.668049
2022-11-08T14:12:35.049Z,9.668040
2022-11-08T14:13:35.052Z,9.668008
2022-11-08T14:15:06.923Z,9.668024
2022-11-08T14:15:35.024Z,9.668002
2022-11-08T14:16:35.000Z,9.668042
2022-11-08T14:17:34.996Z,9.668015
2022-11-08T14:18:35.067Z,9.667981
2022-11-08T14:19:34.975Z,9.668013
2022-11-08T14:20:35.006Z,9.668052
2022-11-08T14:21:35.020Z,9.668048
2022-11-08T14:22:34.953Z,9.668034
2022-11-08T14:23:34.947Z,9.668034
2022-11-08T14:24:34.928Z,9.668023
2022-11-08T14:25:34.998Z,9.668034
2022-11-08T14:26:34.931Z,9.668047
2022-11-08T14:27:34.915Z,9.668044
2022-11-08T14:28:34.924Z,9.668022
2022-11-08T14:29:34.887Z,9.668015
2022-11-08T14:30:34.916Z,9.667993
2022-11-08T14:31:34.939Z,9.668015
2022-11-08T14:32:34.885Z,9.668053
2022-11-08T14:33:34.912Z,9.668024
2022-11-08T14:34:34.856Z,9.668049
2022-11-08T14:35:34.899Z,9.668028
2022-11-08T14:36:34.854Z,9.668063
2022-11-08T14:37:34.821Z,9.668028
2022-11-08T14:38:34.851Z,9.668078
2022-11-08T14:39:34.831Z,9.668078
2022-11-08T14:40:34.813Z,9.668051
2022-11-08T14:41:34.845Z,9.667982
2022-11-08T14:42:34.831Z,9.667993
2022-11-08T14:43:34.821Z,9.668054
2022-11-08T14:44:34.774Z,9.668021
2022-11-08T14:45:34.780Z,9.668083
2022-11-08T14:46:34.816Z,9.668133
2022-11-08T14:47:34.797Z,9.668112
2022-11-08T14:48:34.792Z,9.668077
2022-11-08T14:49:35.491Z,9.668051
2022-11-08T14:50:34.759Z,9.668036
2022-11-08T14:51:34.740Z,9.667981
2022-11-08T14:52:34.806Z,9.667983
2022-11-08T14:53:34.718Z,9.667996
2022-11-08T14:54:34.716Z,9.668017
2022-11-08T14:55:34.689Z,9.668034
2022-11-08T14:56:34.723Z,9.668023
2022-11-08T14:57:34.690Z,9.668002
2022-11-08T14:58:34.775Z,9.668029
2022-11-08T14:59:34.663Z,9.668026
2022-11-08T15:00:35.647Z,9.668030
2022-11-08T15:01:34.737Z,9.668060
2022-11-08T15:02:34.650Z,9.668028
2022-11-08T15:03:34.669Z,9.668001
2022-11-08T15:04:34.624Z,9.668015
2022-11-08T15:05:34.627Z,9.668029
2022-11-08T15:06:34.688Z,9.667995
2022-11-08T15:07:34.601Z,9.668008
2022-11-08T15:08:34.628Z,9.668058
2022-11-08T15:09:34.605Z,9.668058
2022-11-08T15:10:34.598Z,9.667977
2022-11-08T15:11:34.617Z,9.667981
2022-11-08T15:12:34.570Z,9.668019
2022-11-08T15:13:34.575Z,9.668083
2022-11-08T15:14:34.547Z,9.668047
2022-11-08T15:15:34.596Z,9.668038
2022-11-08T15:16:34.551Z,9.668002
2022-11-08T15:17:34.621Z,9.668050
2022-11-08T15:18:34.555Z,9.668029
2022-11-08T15:19:34.501Z,9.668020
2022-11-08T15:20:34.545Z,9.668054
2022-11-08T15:21:34.505Z,9.668060
2022-11-08T15:22:34.528Z,9.668051
2022-11-08T15:23:34.516Z,9.668046
2022-11-08T15:24:34.510Z,9.667986
2022-11-08T15:25:34.518Z,9.667979
2022-11-08T15:26:34.460Z,9.668035
2022-11-08T15:27:34.482Z,9.667978
2022-11-08T15:28:34.441Z,9.667967
2022-11-08T15:29:34.477Z,9.668020
2022-11-08T15:30:34.432Z,9.668074
2022-11-08T15:31:34.447Z,9.668042
2022-11-08T15:32:34.451Z,9.668076
2022-11-08T15:33:34.415Z,9.668104
2022-11-08T15:34:34.452Z,9.668081
2022-11-08T15:35:34.520Z,9.668064
2022-11-08T15:36:34.368Z,9.668038
2022-11-08T15:37:34.371Z,9.668077
2022-11-08T15:38:34.354Z,9.668100
2022-11-08T15:39:34.398Z,9.668057
2022-11-08T15:40:34.337Z,9.668026
2022-11-08T15:41:35.400Z,9.668026
2022-11-08T15:42:34.366Z,9.668061
2022-11-08T15:43:34.324Z,9.667996
2022-11-08T15:44:34.317Z,9.668080
2022-11-08T15:45:34.340Z,9.668026
2022-11-08T15:46:34.392Z,9.667952
2022-11-08T15:47:34.307Z,9.667966
2022-11-08T15:48:35.326Z,9.667971
2022-11-08T15:49:34.992Z,9.668101
2022-11-08T15:50:34.283Z,9.668024
2022-11-08T15:51:34.304Z,9.668055
2022-11-08T15:52:34.279Z,9.668108